Fargo, ND (58102)

12:37 PM CST on February 25, 2017 (GMT -0600)
Northport | | Change Station
Active Advisory: Flood Warning

Elev 899 ft 46.91 °N, 96.79 °W | Updated 18 seconds ago

Overcast
Overcast
29.5 °F
Feels Like 24 °F
N
5.0
Wind Variable Wind from West

Today
High -- | Low -- °F
--% Chance of Precip.
Yesterday
High -- | Low -- °F
Precip. -- in
Pressure 29.90 in
Visibility 10.0 miles
Clouds Mostly Cloudy 2200 ft
Mostly Cloudy 3200 ft
Overcast 5500 ft
Windchill 24 °F
Dew Point 23 °F
Humidity 76%
Rainfall 0.00 in
Snow Depth Not available.
7:13 AM 6:07 PM
Waning Crescent, 1% visible
METAR KFAR 251753Z 23012KT 10SM BKN022 BKN032 OVC055 M01/M06 A2985 RMK AO2 SLP123 T10111061 11006 21078 56014
Pressure 29.90 in
Visibility 10.0 miles
Clouds Mostly Cloudy 2200 ft
Mostly Cloudy 3200 ft
Overcast 5500 ft
Windchill 24 °F
Dew Point 23 °F
Humidity 76%
Rainfall 0.00 in
Snow Depth Not available.
7:13 AM 6:07 PM
Waning Crescent, 1% visible
METAR KFAR 251753Z 23012KT 10SM BKN022 BKN032 OVC055 M01/M06 A2985 RMK AO2 SLP123 T10111061 11006 21078 56014

Get Your Daily Forecast Email!

Thanks for signing up!

Be on the lookout for a verification email in your inbox.

You'll start receiving the daily forecast at 8 AM.

×

10-Day Weather Forecast

Almanac

Astronomy

Feb. 25, 2017 Rise Set
Actual Time
Civil Twilight
Nautical Twilight
Astronomical Twilight
Moon
Length of Visible Light
Length of Day
Tomorrow will be .
, % of the Moon is Illuminated

Today's Extremes

State Highs State Lows

Community

WunderPhotos

Upload Photos

1,962,540 photos uploaded!

WunderBlog® & News

Nearby

Air Quality

  Air Quality AQ Index Pollutant
Not available.

Snow Depth

Station Depth Elevation

Earthquake Activity

City Distance Mag. Time & Date
Minimum magnitude displayed is 2.5.

Coastal Water Temperatures

Place Temperature

Stations

Nearby Weather Stations

Station Location Temp. Windchill Dew Point Humidity Wind Precip. Elev Updated Type
                   

Watches & Warnings

Flood Warning
Issued: 10:54 AM CST Feb. 25, 2017 – National Weather Service

The Flood Warning continues for...
* ... Fargo on the Red River.
* Until further notice, or until the warning is cancelled.
* At 9:15 am Saturday the stage was 22.1 feet.
* Minor flooding is occurring and minor flooding is forecast.
* Minor flood stage is 18.0 feet.
* Forecast... the river has crested and will continue to fall to a
stage of 21.7 feet by Sunday mid-morning.
* Impact statement(s) - at 22.0 feet, Fargo North Broadway bridge is
closed.


Daily 7am CDT/6am CST forecast stage in feet:

date sun Mon Tue Wed Thu Fri Sat
(month/day) 02/26 02/27 02/28 03/01 03/02 03/03 03/04

Red River
Fargo 21.7 20.7 19.7 18.9 18.4 18.2 18.1


Lat... Lon 4715 9673 4724 9683 4724 9694 4676 9689 4677 9671